sensor_id;sensor_type;location;lat;lon;timestamp;P1;durP1;ratioP1;P2;durP2;ratioP2
20525;SDS011;10421;49.142;9.232;2023-08-01T00:00:06;6.83;;;2.77;;
20525;SDS011;10421;49.142;9.232;2023-08-01T00:02:34;10.77;;;4.00;;
20525;SDS011;10421;49.142;9.232;2023-08-01T00:05:01;10.57;;;3.70;;
20525;SDS011;10421;49.142;9.232;2023-08-01T00:07:27;5.37;;;3.07;;
20525;SDS011;10421;49.142;9.232;2023-08-01T00:09:54;10.60;;;3.53;;
20525;SDS011;10421;49.142;9.232;2023-08-01T00:12:21;8.60;;;3.43;;
20525;SDS011;10421;49.142;9.232;2023-08-01T00:14:49;7.97;;;3.27;;
20525;SDS011;10421;49.142;9.232;2023-08-01T00:17:18;9.77;;;3.90;;
20525;SDS011;10421;49.142;9.232;2023-08-01T00:19:44;12.47;;;4.43;;
20525;SDS011;10421;49.142;9.232;2023-08-01T00:22:11;9.83;;;3.40;;
20525;SDS011;10421;49.142;9.232;2023-08-01T00:24:37;11.03;;;3.27;;
20525;SDS011;10421;49.142;9.232;2023-08-01T00:27:04;6.47;;;3.60;;
20525;SDS011;10421;49.142;9.232;2023-08-01T00:29:34;7.50;;;3.27;;
20525;SDS011;10421;49.142;9.232;2023-08-01T00:32:00;9.07;;;3.10;;
20525;SDS011;10421;49.142;9.232;2023-08-01T00:34:28;14.30;;;4.57;;
20525;SDS011;10421;49.142;9.232;2023-08-01T00:36:56;10.10;;;3.60;;
20525;SDS011;10421;49.142;9.232;2023-08-01T00:39:22;7.60;;;3.20;;
20525;SDS011;10421;49.142;9.232;2023-08-01T00:41:49;12.30;;;3.90;;
20525;SDS011;10421;49.142;9.232;2023-08-01T00:44:16;6.60;;;3.63;;
20525;SDS011;10421;49.142;9.232;2023-08-01T00:46:42;7.40;;;3.13;;
20525;SDS011;10421;49.142;9.232;2023-08-01T00:49:10;7.67;;;3.50;;
20525;SDS011;10421;49.142;9.232;2023-08-01T00:51:38;9.77;;;3.57;;
20525;SDS011;10421;49.142;9.232;2023-08-01T00:54:04;6.60;;;2.90;;
20525;SDS011;10421;49.142;9.232;2023-08-01T00:56:32;6.03;;;3.13;;
20525;SDS011;10421;49.142;9.232;2023-08-01T00:58:59;5.47;;;2.87;;
20525;SDS011;10421;49.142;9.232;2023-08-01T01:01:26;5.53;;;3.10;;
20525;SDS011;10421;49.142;9.232;2023-08-01T01:03:53;9.77;;;3.73;;
20525;SDS011;10421;49.142;9.232;2023-08-01T01:06:20;6.93;;;3.40;;
20525;SDS011;10421;49.142;9.232;2023-08-01T01:08:51;7.93;;;3.50;;
20525;SDS011;10421;49.142;9.232;2023-08-01T01:11:20;8.37;;;3.37;;
20525;SDS011;10421;49.142;9.232;2023-08-01T01:13:47;9.10;;;3.63;;
20525;SDS011;10421;49.142;9.232;2023-08-01T01:16:13;6.83;;;3.20;;
20525;SDS011;10421;49.142;9.232;2023-08-01T01:18:40;8.50;;;3.77;;
20525;SDS011;10421;49.142;9.232;2023-08-01T01:21:08;6.03;;;3.10;;
20525;SDS011;10421;49.142;9.232;2023-08-01T01:23:35;8.00;;;3.87;;
20525;SDS011;10421;49.142;9.232;2023-08-01T01:26:02;10.33;;;3.40;;
20525;SDS011;10421;49.142;9.232;2023-08-01T01:28:32;8.40;;;3.27;;
20525;SDS011;10421;49.142;9.232;2023-08-01T01:31:00;12.53;;;4.87;;
20525;SDS011;10421;49.142;9.232;2023-08-01T01:33:27;11.83;;;3.67;;
20525;SDS011;10421;49.142;9.232;2023-08-01T01:35:54;6.90;;;3.17;;
20525;SDS011;10421;49.142;9.232;2023-08-01T01:38:22;5.57;;;3.03;;
20525;SDS011;10421;49.142;9.232;2023-08-01T01:40:49;5.70;;;3.17;;
20525;SDS011;10421;49.142;9.232;2023-08-01T01:43:16;8.23;;;3.60;;
20525;SDS011;10421;49.142;9.232;2023-08-01T01:45:42;5.30;;;3.10;;
20525;SDS011;10421;49.142;9.232;2023-08-01T01:48:09;8.85;;;3.33;;
20525;SDS011;10421;49.142;9.232;2023-08-01T01:50:36;7.10;;;3.20;;
20525;SDS011;10421;49.142;9.232;2023-08-01T01:53:03;6.70;;;3.63;;
20525;SDS011;10421;49.142;9.232;2023-08-01T01:55:31;13.93;;;4.40;;
20525;SDS011;10421;49.142;9.232;2023-08-01T01:57:57;10.93;;;4.43;;
20525;SDS011;10421;49.142;9.232;2023-08-01T02:00:24;10.47;;;4.13;;
20525;SDS011;10421;49.142;9.232;2023-08-01T02:02:51;9.50;;;3.97;;
20525;SDS011;10421;49.142;9.232;2023-08-01T02:05:17;6.90;;;3.33;;
20525;SDS011;10421;49.142;9.232;2023-08-01T02:07:44;10.37;;;4.20;;
20525;SDS011;10421;49.142;9.232;2023-08-01T02:10:11;7.10;;;3.80;;
20525;SDS011;10421;49.142;9.232;2023-08-01T02:12:39;7.37;;;3.60;;
20525;SDS011;10421;49.142;9.232;2023-08-01T02:15:06;7.97;;;4.00;;
20525;SDS011;10421;49.142;9.232;2023-08-01T02:17:33;9.03;;;3.90;;
20525;SDS011;10421;49.142;9.232;2023-08-01T02:20:00;6.50;;;3.70;;
20525;SDS011;10421;49.142;9.232;2023-08-01T02:22:27;7.43;;;3.63;;
20525;SDS011;10421;49.142;9.232;2023-08-01T02:24:53;11.10;;;4.00;;
20525;SDS011;10421;49.142;9.232;2023-08-01T02:27:20;6.60;;;3.23;;
20525;SDS011;10421;49.142;9.232;2023-08-01T02:29:48;6.50;;;3.13;;
20525;SDS011;10421;49.142;9.232;2023-08-01T02:32:15;6.10;;;3.37;;
20525;SDS011;10421;49.142;9.232;2023-08-01T02:34:42;9.00;;;3.10;;
20525;SDS011;10421;49.142;9.232;2023-08-01T02:37:09;10.90;;;4.50;;
20525;SDS011;10421;49.142;9.232;2023-08-01T02:39:36;8.70;;;3.00;;
20525;SDS011;10421;49.142;9.232;2023-08-01T02:42:02;7.23;;;3.50;;
20525;SDS011;10421;49.142;9.232;2023-08-01T02:44:29;9.07;;;4.30;;
20525;SDS011;10421;49.142;9.232;2023-08-01T02:46:57;9.10;;;4.10;;
20525;SDS011;10421;49.142;9.232;2023-08-01T02:49:24;10.90;;;4.60;;
20525;SDS011;10421;49.142;9.232;2023-08-01T02:51:51;8.13;;;3.40;;
20525;SDS011;10421;49.142;9.232;2023-08-01T02:54:17;8.43;;;3.40;;
20525;SDS011;10421;49.142;9.232;2023-08-01T02:56:44;10.73;;;4.60;;
20525;SDS011;10421;49.142;9.232;2023-08-01T02:59:11;7.30;;;3.33;;
20525;SDS011;10421;49.142;9.232;2023-08-01T03:01:38;5.80;;;3.60;;
20525;SDS011;10421;49.142;9.232;2023-08-01T03:04:06;10.80;;;4.07;;
20525;SDS011;10421;49.142;9.232;2023-08-01T03:06:33;8.60;;;3.80;;
20525;SDS011;10421;49.142;9.232;2023-08-01T03:09:00;7.07;;;2.97;;
20525;SDS011;10421;49.142;9.232;2023-08-01T03:11:27;8.93;;;3.93;;
20525;SDS011;10421;49.142;9.232;2023-08-01T03:13:53;7.80;;;3.33;;
20525;SDS011;10421;49.142;9.232;2023-08-01T03:16:20;5.40;;;3.00;;
20525;SDS011;10421;49.142;9.232;2023-08-01T03:18:47;7.20;;;3.50;;
20525;SDS011;10421;49.142;9.232;2023-08-01T03:21:15;6.70;;;3.50;;
20525;SDS011;10421;49.142;9.232;2023-08-01T03:23:41;11.40;;;4.40;;
20525;SDS011;10421;49.142;9.232;2023-08-01T03:26:08;8.40;;;3.97;;
20525;SDS011;10421;49.142;9.232;2023-08-01T03:28:35;4.83;;;2.90;;
20525;SDS011;10421;49.142;9.232;2023-08-01T03:31:02;11.03;;;4.10;;
20525;SDS011;10421;49.142;9.232;2023-08-01T03:33:28;9.07;;;3.80;;
20525;SDS011;10421;49.142;9.232;2023-08-01T03:35:55;9.00;;;3.50;;
20525;SDS011;10421;49.142;9.232;2023-08-01T03:38:23;6.10;;;3.47;;
20525;SDS011;10421;49.142;9.232;2023-08-01T03:40:50;7.67;;;3.60;;
20525;SDS011;10421;49.142;9.232;2023-08-01T03:43:17;7.47;;;3.23;;
20525;SDS011;10421;49.142;9.232;2023-08-01T03:45:48;11.87;;;4.90;;
20525;SDS011;10421;49.142;9.232;2023-08-01T03:48:15;7.30;;;2.93;;
20525;SDS011;10421;49.142;9.232;2023-08-01T03:50:42;13.67;;;4.90;;
20525;SDS011;10421;49.142;9.232;2023-08-01T03:53:08;10.63;;;3.73;;
20525;SDS011;10421;49.142;9.232;2023-08-01T03:55:36;8.17;;;3.73;;
20525;SDS011;10421;49.142;9.232;2023-08-01T03:58:03;7.60;;;3.40;;
20525;SDS011;10421;49.142;9.232;2023-08-01T04:00:30;7.43;;;3.77;;
20525;SDS011;10421;49.142;9.232;2023-08-01T04:02:57;5.23;;;3.40;;
20525;SDS011;10421;49.142;9.232;2023-08-01T04:05:24;10.13;;;4.17;;
20525;SDS011;10421;49.142;9.232;2023-08-01T04:07:51;7.67;;;3.50;;
20525;SDS011;10421;49.142;9.232;2023-08-01T04:10:19;10.23;;;3.80;;
20525;SDS011;10421;49.142;9.232;2023-08-01T04:12:47;9.60;;;3.60;;
20525;SDS011;10421;49.142;9.232;2023-08-01T04:15:14;5.70;;;3.37;;
20525;SDS011;10421;49.142;9.232;2023-08-01T04:17:41;11.33;;;4.27;;
20525;SDS011;10421;49.142;9.232;2023-08-01T04:20:08;10.97;;;3.80;;
20525;SDS011;10421;49.142;9.232;2023-08-01T04:22:35;6.40;;;3.23;;
20525;SDS011;10421;49.142;9.232;2023-08-01T04:25:02;6.03;;;3.10;;
20525;SDS011;10421;49.142;9.232;2023-08-01T04:27:29;9.80;;;3.57;;
20525;SDS011;10421;49.142;9.232;2023-08-01T04:29:57;7.10;;;3.30;;
20525;SDS011;10421;49.142;9.232;2023-08-01T04:32:24;10.37;;;4.00;;
20525;SDS011;10421;49.142;9.232;2023-08-01T04:34:51;7.03;;;3.20;;
20525;SDS011;10421;49.142;9.232;2023-08-01T04:37:18;6.87;;;3.53;;
20525;SDS011;10421;49.142;9.232;2023-08-01T04:39:47;9.40;;;4.07;;
20525;SDS011;10421;49.142;9.232;2023-08-01T04:42:14;9.47;;;3.83;;
20525;SDS011;10421;49.142;9.232;2023-08-01T04:44:41;7.37;;;3.30;;
20525;SDS011;10421;49.142;9.232;2023-08-01T04:47:09;13.43;;;4.87;;
20525;SDS011;10421;49.142;9.232;2023-08-01T04:49:36;7.20;;;3.40;;
20525;SDS011;10421;49.142;9.232;2023-08-01T04:52:03;7.40;;;4.00;;
20525;SDS011;10421;49.142;9.232;2023-08-01T04:54:31;12.47;;;4.57;;
20525;SDS011;10421;49.142;9.232;2023-08-01T04:56:57;8.57;;;4.07;;
20525;SDS011;10421;49.142;9.232;2023-08-01T04:59:24;12.53;;;4.83;;
20525;SDS011;10421;49.142;9.232;2023-08-01T05:01:51;10.10;;;4.10;;
20525;SDS011;10421;49.142;9.232;2023-08-01T05:04:19;13.27;;;4.90;;
20525;SDS011;10421;49.142;9.232;2023-08-01T05:06:46;7.73;;;3.60;;
20525;SDS011;10421;49.142;9.232;2023-08-01T05:09:12;10.70;;;4.23;;
20525;SDS011;10421;49.142;9.232;2023-08-01T05:11:39;7.17;;;3.70;;
20525;SDS011;10421;49.142;9.232;2023-08-01T05:14:06;12.20;;;4.50;;
20525;SDS011;10421;49.142;9.232;2023-08-01T05:16:32;7.30;;;3.87;;
20525;SDS011;10421;49.142;9.232;2023-08-01T05:18:59;8.07;;;3.37;;
20525;SDS011;10421;49.142;9.232;2023-08-01T05:21:27;8.87;;;4.13;;
20525;SDS011;10421;49.142;9.232;2023-08-01T05:23:54;9.50;;;3.97;;
20525;SDS011;10421;49.142;9.232;2023-08-01T05:26:20;8.27;;;3.63;;
20525;SDS011;10421;49.142;9.232;2023-08-01T05:28:47;7.40;;;3.23;;
20525;SDS011;10421;49.142;9.232;2023-08-01T05:31:14;11.13;;;4.23;;
20525;SDS011;10421;49.142;9.232;2023-08-01T05:33:41;8.43;;;3.50;;
20525;SDS011;10421;49.142;9.232;2023-08-01T05:36:07;10.70;;;3.80;;
20525;SDS011;10421;49.142;9.232;2023-08-01T05:38:35;11.77;;;4.37;;
20525;SDS011;10421;49.142;9.232;2023-08-01T05:41:02;8.97;;;3.57;;
20525;SDS011;10421;49.142;9.232;2023-08-01T05:43:29;11.20;;;4.50;;
20525;SDS011;10421;49.142;9.232;2023-08-01T05:45:55;12.27;;;4.20;;
20525;SDS011;10421;49.142;9.232;2023-08-01T05:48:22;12.00;;;4.03;;
20525;SDS011;10421;49.142;9.232;2023-08-01T05:50:49;9.57;;;4.27;;
20525;SDS011;10421;49.142;9.232;2023-08-01T05:53:16;8.40;;;3.80;;
20525;SDS011;10421;49.142;9.232;2023-08-01T05:55:44;7.30;;;3.40;;
20525;SDS011;10421;49.142;9.232;2023-08-01T05:58:11;9.30;;;3.67;;
20525;SDS011;10421;49.142;9.232;2023-08-01T06:00:37;8.40;;;3.40;;
20525;SDS011;10421;49.142;9.232;2023-08-01T06:03:04;12.63;;;5.00;;
20525;SDS011;10421;49.142;9.232;2023-08-01T06:05:31;8.37;;;3.60;;
20525;SDS011;10421;49.142;9.232;2023-08-01T06:07:58;7.80;;;3.17;;
20525;SDS011;10421;49.142;9.232;2023-08-01T06:10:24;10.73;;;4.27;;
20525;SDS011;10421;49.142;9.232;2023-08-01T06:12:52;10.70;;;4.07;;
20525;SDS011;10421;49.142;9.232;2023-08-01T06:15:19;14.87;;;4.40;;
20525;SDS011;10421;49.142;9.232;2023-08-01T06:17:46;11.10;;;3.80;;
20525;SDS011;10421;49.142;9.232;2023-08-01T06:20:13;11.80;;;4.83;;
20525;SDS011;10421;49.142;9.232;2023-08-01T06:22:40;9.43;;;4.20;;
20525;SDS011;10421;49.142;9.232;2023-08-01T06:25:08;10.50;;;4.20;;
20525;SDS011;10421;49.142;9.232;2023-08-01T06:27:35;9.00;;;4.17;;
20525;SDS011;10421;49.142;9.232;2023-08-01T06:30:04;9.17;;;3.60;;
20525;SDS011;10421;49.142;9.232;2023-08-01T06:32:32;11.47;;;4.27;;
20525;SDS011;10421;49.142;9.232;2023-08-01T06:34:58;12.30;;;4.37;;
20525;SDS011;10421;49.142;9.232;2023-08-01T06:37:25;9.13;;;4.23;;
20525;SDS011;10421;49.142;9.232;2023-08-01T06:39:52;11.87;;;4.60;;
20525;SDS011;10421;49.142;9.232;2023-08-01T06:42:20;8.40;;;3.80;;
20525;SDS011;10421;49.142;9.232;2023-08-01T06:44:46;9.20;;;4.23;;
20525;SDS011;10421;49.142;9.232;2023-08-01T06:47:14;9.50;;;4.40;;
20525;SDS011;10421;49.142;9.232;2023-08-01T06:49:41;14.53;;;4.50;;
20525;SDS011;10421;49.142;9.232;2023-08-01T06:52:08;10.87;;;4.37;;
20525;SDS011;10421;49.142;9.232;2023-08-01T06:54:35;8.03;;;4.10;;
20525;SDS011;10421;49.142;9.232;2023-08-01T06:57:02;8.70;;;3.90;;
20525;SDS011;10421;49.142;9.232;2023-08-01T06:59:29;12.07;;;4.13;;
20525;SDS011;10421;49.142;9.232;2023-08-01T07:01:56;7.27;;;3.47;;
20525;SDS011;10421;49.142;9.232;2023-08-01T07:04:24;7.93;;;3.27;;
20525;SDS011;10421;49.142;9.232;2023-08-01T07:06:51;11.50;;;4.00;;
20525;SDS011;10421;49.142;9.232;2023-08-01T07:09:17;10.47;;;3.27;;
20525;SDS011;10421;49.142;9.232;2023-08-01T07:11:44;16.50;;;5.30;;
20525;SDS011;10421;49.142;9.232;2023-08-01T07:14:11;11.10;;;4.17;;
20525;SDS011;10421;49.142;9.232;2023-08-01T07:16:37;8.73;;;4.20;;
20525;SDS011;10421;49.142;9.232;2023-08-01T07:19:04;10.17;;;4.43;;
20525;SDS011;10421;49.142;9.232;2023-08-01T07:21:32;7.70;;;3.13;;
20525;SDS011;10421;49.142;9.232;2023-08-01T07:23:59;9.87;;;4.33;;
20525;SDS011;10421;49.142;9.232;2023-08-01T07:26:26;7.63;;;3.50;;
20525;SDS011;10421;49.142;9.232;2023-08-01T07:28:53;11.70;;;3.73;;
20525;SDS011;10421;49.142;9.232;2023-08-01T07:31:20;10.73;;;4.20;;
20525;SDS011;10421;49.142;9.232;2023-08-01T07:33:47;9.67;;;3.80;;
20525;SDS011;10421;49.142;9.232;2023-08-01T07:36:14;9.48;;;4.05;;
20525;SDS011;10421;49.142;9.232;2023-08-01T07:38:42;8.70;;;3.40;;
20525;SDS011;10421;49.142;9.232;2023-08-01T07:41:08;9.47;;;3.80;;
20525;SDS011;10421;49.142;9.232;2023-08-01T07:43:35;6.73;;;3.40;;
20525;SDS011;10421;49.142;9.232;2023-08-01T07:46:02;9.73;;;3.70;;
20525;SDS011;10421;49.142;9.232;2023-08-01T07:48:29;9.80;;;3.90;;
20525;SDS011;10421;49.142;9.232;2023-08-01T07:50:55;8.17;;;3.40;;
20525;SDS011;10421;49.142;9.232;2023-08-01T07:53:22;8.23;;;3.90;;
20525;SDS011;10421;49.142;9.232;2023-08-01T07:55:51;10.53;;;3.83;;
20525;SDS011;10421;49.142;9.232;2023-08-01T07:58:18;7.23;;;3.70;;
20525;SDS011;10421;49.142;9.232;2023-08-01T08:00:44;10.63;;;4.50;;
20525;SDS011;10421;49.142;9.232;2023-08-01T08:03:11;15.50;;;4.20;;
20525;SDS011;10421;49.142;9.232;2023-08-01T08:05:38;10.60;;;3.60;;
20525;SDS011;10421;49.142;9.232;2023-08-01T08:08:05;10.33;;;3.87;;
20525;SDS011;10421;49.142;9.232;2023-08-01T08:10:32;9.30;;;3.93;;
20525;SDS011;10421;49.142;9.232;2023-08-01T08:13:00;12.53;;;4.87;;
20525;SDS011;10421;49.142;9.232;2023-08-01T08:15:27;11.73;;;4.60;;
20525;SDS011;10421;49.142;9.232;2023-08-01T08:17:58;8.97;;;3.80;;
20525;SDS011;10421;49.142;9.232;2023-08-01T08:20:25;12.60;;;4.23;;
20525;SDS011;10421;49.142;9.232;2023-08-01T08:22:52;10.80;;;4.17;;
20525;SDS011;10421;49.142;9.232;2023-08-01T08:25:18;9.47;;;4.10;;
20525;SDS011;10421;49.142;9.232;2023-08-01T08:27:45;9.30;;;4.10;;
20525;SDS011;10421;49.142;9.232;2023-08-01T08:30:14;9.90;;;4.30;;
20525;SDS011;10421;49.142;9.232;2023-08-01T08:32:41;10.97;;;4.00;;
20525;SDS011;10421;49.142;9.232;2023-08-01T08:35:08;8.40;;;3.80;;
20525;SDS011;10421;49.142;9.232;2023-08-01T08:37:36;11.40;;;4.03;;
20525;SDS011;10421;49.142;9.232;2023-08-01T08:40:03;12.77;;;4.73;;
20525;SDS011;10421;49.142;9.232;2023-08-01T08:42:30;10.60;;;4.20;;
20525;SDS011;10421;49.142;9.232;2023-08-01T08:44:59;9.00;;;4.10;;
20525;SDS011;10421;49.142;9.232;2023-08-01T08:47:29;9.10;;;4.27;;
20525;SDS011;10421;49.142;9.232;2023-08-01T08:49:58;8.57;;;3.97;;
20525;SDS011;10421;49.142;9.232;2023-08-01T08:52:25;8.30;;;3.10;;
20525;SDS011;10421;49.142;9.232;2023-08-01T08:54:52;6.57;;;3.30;;
20525;SDS011;10421;49.142;9.232;2023-08-01T08:57:20;9.47;;;3.70;;
20525;SDS011;10421;49.142;9.232;2023-08-01T08:59:47;9.27;;;3.70;;
20525;SDS011;10421;49.142;9.232;2023-08-01T09:02:15;9.60;;;3.47;;
20525;SDS011;10421;49.142;9.232;2023-08-01T09:04:43;5.93;;;3.00;;
20525;SDS011;10421;49.142;9.232;2023-08-01T09:07:10;8.30;;;3.10;;
20525;SDS011;10421;49.142;9.232;2023-08-01T09:09:39;4.37;;;2.47;;
20525;SDS011;10421;49.142;9.232;2023-08-01T09:12:06;8.30;;;3.37;;
20525;SDS011;10421;49.142;9.232;2023-08-01T09:14:35;7.50;;;3.30;;
20525;SDS011;10421;49.142;9.232;2023-08-01T09:17:05;6.83;;;2.53;;
20525;SDS011;10421;49.142;9.232;2023-08-01T09:19:33;9.27;;;2.93;;
20525;SDS011;10421;49.142;9.232;2023-08-01T09:22:02;5.60;;;2.30;;
20525;SDS011;10421;49.142;9.232;2023-08-01T09:24:36;6.70;;;2.23;;
20525;SDS011;10421;49.142;9.232;2023-08-01T09:27:03;8.33;;;2.70;;
20525;SDS011;10421;49.142;9.232;2023-08-01T09:29:31;6.13;;;2.00;;
20525;SDS011;10421;49.142;9.232;2023-08-01T09:31:58;6.50;;;1.80;;
20525;SDS011;10421;49.142;9.232;2023-08-01T09:34:25;11.00;;;2.90;;
20525;SDS011;10421;49.142;9.232;2023-08-01T09:36:57;3.57;;;1.13;;
20525;SDS011;10421;49.142;9.232;2023-08-01T09:39:26;7.10;;;2.00;;
20525;SDS011;10421;49.142;9.232;2023-08-01T09:41:57;8.73;;;2.03;;
20525;SDS011;10421;49.142;9.232;2023-08-01T09:44:24;7.40;;;2.10;;
20525;SDS011;10421;49.142;9.232;2023-08-01T09:46:55;8.63;;;2.60;;
20525;SDS011;10421;49.142;9.232;2023-08-01T09:49:23;1.53;;;0.90;;
20525;SDS011;10421;49.142;9.232;2023-08-01T09:51:50;3.90;;;1.40;;
20525;SDS011;10421;49.142;9.232;2023-08-01T09:54:17;4.73;;;1.50;;
20525;SDS011;10421;49.142;9.232;2023-08-01T09:56:47;3.13;;;1.13;;
20525;SDS011;10421;49.142;9.232;2023-08-01T09:59:15;2.37;;;1.00;;
20525;SDS011;10421;49.142;9.232;2023-08-01T10:01:46;4.30;;;1.50;;
20525;SDS011;10421;49.142;9.232;2023-08-01T10:04:15;2.63;;;1.20;;
20525;SDS011;10421;49.142;9.232;2023-08-01T10:06:43;4.97;;;1.60;;
20525;SDS011;10421;49.142;9.232;2023-08-01T10:09:13;5.00;;;1.67;;
20525;SDS011;10421;49.142;9.232;2023-08-01T10:11:41;6.57;;;2.07;;
20525;SDS011;10421;49.142;9.232;2023-08-01T10:14:11;4.77;;;1.80;;
20525;SDS011;10421;49.142;9.232;2023-08-01T10:16:38;5.67;;;1.97;;
20525;SDS011;10421;49.142;9.232;2023-08-01T10:19:07;5.57;;;1.97;;
20525;SDS011;10421;49.142;9.232;2023-08-01T10:21:37;3.30;;;1.30;;
20525;SDS011;10421;49.142;9.232;2023-08-01T10:24:04;8.70;;;2.67;;
20525;SDS011;10421;49.142;9.232;2023-08-01T10:26:32;5.83;;;2.00;;
20525;SDS011;10421;49.142;9.232;2023-08-01T10:29:00;3.90;;;1.60;;
20525;SDS011;10421;49.142;9.232;2023-08-01T10:31:29;3.90;;;1.50;;
20525;SDS011;10421;49.142;9.232;2023-08-01T10:34:03;2.20;;;1.00;;
20525;SDS011;10421;49.142;9.232;2023-08-01T10:36:31;3.07;;;1.40;;
20525;SDS011;10421;49.142;9.232;2023-08-01T10:38:59;4.17;;;1.60;;
20525;SDS011;10421;49.142;9.232;2023-08-01T10:41:28;4.00;;;1.90;;
20525;SDS011;10421;49.142;9.232;2023-08-01T10:44:05;2.13;;;1.20;;
20525;SDS011;10421;49.142;9.232;2023-08-01T10:46:46;4.10;;;1.70;;
20525;SDS011;10421;49.142;9.232;2023-08-01T10:49:14;4.57;;;1.80;;
20525;SDS011;10421;49.142;9.232;2023-08-01T10:51:41;8.47;;;2.90;;
20525;SDS011;10421;49.142;9.232;2023-08-01T10:54:17;6.37;;;2.00;;
20525;SDS011;10421;49.142;9.232;2023-08-01T10:56:46;3.00;;;1.53;;
20525;SDS011;10421;49.142;9.232;2023-08-01T10:59:13;6.47;;;2.23;;
20525;SDS011;10421;49.142;9.232;2023-08-01T11:01:43;3.37;;;1.90;;
20525;SDS011;10421;49.142;9.232;2023-08-01T11:04:16;5.47;;;2.17;;
20525;SDS011;10421;49.142;9.232;2023-08-01T11:06:44;5.17;;;2.37;;
20525;SDS011;10421;49.142;9.232;2023-08-01T11:09:18;3.60;;;1.70;;
20525;SDS011;10421;49.142;9.232;2023-08-01T11:11:48;3.80;;;1.63;;
20525;SDS011;10421;49.142;9.232;2023-08-01T11:14:16;2.77;;;1.43;;
20525;SDS011;10421;49.142;9.232;2023-08-01T11:16:46;3.13;;;1.40;;
20525;SDS011;10421;49.142;9.232;2023-08-01T11:19:22;4.73;;;1.60;;
20525;SDS011;10421;49.142;9.232;2023-08-01T11:21:49;4.77;;;2.10;;
20525;SDS011;10421;49.142;9.232;2023-08-01T11:24:17;3.83;;;1.83;;
20525;SDS011;10421;49.142;9.232;2023-08-01T11:26:45;6.13;;;2.30;;
20525;SDS011;10421;49.142;9.232;2023-08-01T11:29:13;4.47;;;1.97;;
20525;SDS011;10421;49.142;9.232;2023-08-01T11:31:41;2.20;;;1.30;;
20525;SDS011;10421;49.142;9.232;2023-08-01T11:34:17;5.17;;;2.13;;
20525;SDS011;10421;49.142;9.232;2023-08-01T11:36:45;6.15;;;2.17;;
20525;SDS011;10421;49.142;9.232;2023-08-01T11:39:12;7.63;;;2.50;;
20525;SDS011;10421;49.142;9.232;2023-08-01T11:41:41;3.60;;;1.33;;
20525;SDS011;10421;49.142;9.232;2023-08-01T11:44:08;4.60;;;2.07;;
20525;SDS011;10421;49.142;9.232;2023-08-01T11:46:36;3.97;;;1.80;;
20525;SDS011;10421;49.142;9.232;2023-08-01T11:49:04;2.50;;;1.23;;
20525;SDS011;10421;49.142;9.232;2023-08-01T11:51:38;4.73;;;1.87;;
20525;SDS011;10421;49.142;9.232;2023-08-01T11:54:07;3.60;;;1.63;;
20525;SDS011;10421;49.142;9.232;2023-08-01T11:56:36;4.53;;;1.70;;
20525;SDS011;10421;49.142;9.232;2023-08-01T11:59:07;3.30;;;1.57;;
20525;SDS011;10421;49.142;9.232;2023-08-01T12:01:37;3.13;;;1.30;;
20525;SDS011;10421;49.142;9.232;2023-08-01T12:04:06;9.17;;;2.13;;
20525;SDS011;10421;49.142;9.232;2023-08-01T12:06:33;6.00;;;2.13;;
20525;SDS011;10421;49.142;9.232;2023-08-01T12:09:08;1.83;;;1.20;;
20525;SDS011;10421;49.142;9.232;2023-08-01T12:11:36;3.10;;;1.63;;
20525;SDS011;10421;49.142;9.232;2023-08-01T12:14:04;2.60;;;1.10;;
20525;SDS011;10421;49.142;9.232;2023-08-01T12:16:34;4.07;;;1.73;;
20525;SDS011;10421;49.142;9.232;2023-08-01T12:19:01;6.63;;;2.30;;
20525;SDS011;10421;49.142;9.232;2023-08-01T12:21:28;3.77;;;1.57;;
20525;SDS011;10421;49.142;9.232;2023-08-01T12:23:55;2.30;;;1.27;;
20525;SDS011;10421;49.142;9.232;2023-08-01T12:26:23;9.17;;;1.83;;
20525;SDS011;10421;49.142;9.232;2023-08-01T12:28:50;5.80;;;1.80;;
20525;SDS011;10421;49.142;9.232;2023-08-01T12:31:17;4.30;;;1.60;;
20525;SDS011;10421;49.142;9.232;2023-08-01T12:33:44;8.10;;;2.97;;
20525;SDS011;10421;49.142;9.232;2023-08-01T12:36:11;4.97;;;1.70;;
20525;SDS011;10421;49.142;9.232;2023-08-01T12:38:38;5.30;;;2.07;;
20525;SDS011;10421;49.142;9.232;2023-08-01T12:41:05;5.23;;;1.67;;
20525;SDS011;10421;49.142;9.232;2023-08-01T12:43:33;6.73;;;1.97;;
20525;SDS011;10421;49.142;9.232;2023-08-01T12:46:00;3.07;;;1.17;;
20525;SDS011;10421;49.142;9.232;2023-08-01T12:48:27;7.83;;;2.70;;
20525;SDS011;10421;49.142;9.232;2023-08-01T12:50:55;4.10;;;1.60;;
20525;SDS011;10421;49.142;9.232;2023-08-01T12:53:22;9.80;;;3.33;;
20525;SDS011;10421;49.142;9.232;2023-08-01T12:55:50;3.03;;;1.47;;
20525;SDS011;10421;49.142;9.232;2023-08-01T12:58:17;3.00;;;1.40;;
20525;SDS011;10421;49.142;9.232;2023-08-01T13:00:45;7.70;;;2.03;;
20525;SDS011;10421;49.142;9.232;2023-08-01T13:03:12;6.30;;;2.23;;
20525;SDS011;10421;49.142;9.232;2023-08-01T13:05:39;5.87;;;1.47;;
20525;SDS011;10421;49.142;9.232;2023-08-01T13:08:07;5.50;;;2.17;;
20525;SDS011;10421;49.142;9.232;2023-08-01T13:10:35;5.40;;;2.10;;
20525;SDS011;10421;49.142;9.232;2023-08-01T13:13:04;5.20;;;2.17;;
20525;SDS011;10421;49.142;9.232;2023-08-01T13:15:31;5.07;;;2.10;;
20525;SDS011;10421;49.142;9.232;2023-08-01T13:17:59;6.37;;;2.70;;
20525;SDS011;10421;49.142;9.232;2023-08-01T13:20:25;3.97;;;1.87;;
20525;SDS011;10421;49.142;9.232;2023-08-01T13:22:52;4.77;;;1.60;;
20525;SDS011;10421;49.142;9.232;2023-08-01T13:25:19;5.77;;;2.07;;
20525;SDS011;10421;49.142;9.232;2023-08-01T13:27:46;6.53;;;2.03;;
20525;SDS011;10421;49.142;9.232;2023-08-01T13:30:12;2.50;;;1.40;;
20525;SDS011;10421;49.142;9.232;2023-08-01T13:32:42;4.63;;;1.83;;
20525;SDS011;10421;49.142;9.232;2023-08-01T13:35:11;4.17;;;2.00;;
20525;SDS011;10421;49.142;9.232;2023-08-01T13:37:37;4.10;;;1.97;;
20525;SDS011;10421;49.142;9.232;2023-08-01T13:40:05;9.20;;;2.63;;
20525;SDS011;10421;49.142;9.232;2023-08-01T13:42:32;5.43;;;2.13;;
20525;SDS011;10421;49.142;9.232;2023-08-01T13:44:59;3.27;;;1.90;;
20525;SDS011;10421;49.142;9.232;2023-08-01T13:47:26;4.40;;;2.27;;
20525;SDS011;10421;49.142;9.232;2023-08-01T13:49:53;4.07;;;2.10;;
20525;SDS011;10421;49.142;9.232;2023-08-01T13:52:21;1.77;;;1.17;;
20525;SDS011;10421;49.142;9.232;2023-08-01T13:54:48;7.85;;;2.55;;
20525;SDS011;10421;49.142;9.232;2023-08-01T13:57:14;3.97;;;1.90;;
20525;SDS011;10421;49.142;9.232;2023-08-01T13:59:41;5.27;;;2.00;;
20525;SDS011;10421;49.142;9.232;2023-08-01T14:02:08;4.50;;;1.73;;
20525;SDS011;10421;49.142;9.232;2023-08-01T14:04:34;2.40;;;1.33;;
20525;SDS011;10421;49.142;9.232;2023-08-01T14:07:01;6.50;;;2.47;;
20525;SDS011;10421;49.142;9.232;2023-08-01T14:09:30;3.50;;;1.70;;
20525;SDS011;10421;49.142;9.232;2023-08-01T14:11:57;4.83;;;2.23;;
20525;SDS011;10421;49.142;9.232;2023-08-01T14:14:24;3.23;;;1.80;;
20525;SDS011;10421;49.142;9.232;2023-08-01T14:16:51;2.53;;;1.53;;
20525;SDS011;10421;49.142;9.232;2023-08-01T14:19:17;4.87;;;1.60;;
20525;SDS011;10421;49.142;9.232;2023-08-01T14:21:44;8.03;;;2.17;;
20525;SDS011;10421;49.142;9.232;2023-08-01T14:24:11;5.60;;;1.97;;
20525;SDS011;10421;49.142;9.232;2023-08-01T14:26:39;3.83;;;2.10;;
20525;SDS011;10421;49.142;9.232;2023-08-01T14:29:06;5.10;;;2.23;;
20525;SDS011;10421;49.142;9.232;2023-08-01T14:31:33;4.77;;;1.37;;
20525;SDS011;10421;49.142;9.232;2023-08-01T14:33:59;4.67;;;1.90;;
20525;SDS011;10421;49.142;9.232;2023-08-01T14:36:26;6.10;;;2.57;;
20525;SDS011;10421;49.142;9.232;2023-08-01T14:38:53;4.43;;;1.73;;
20525;SDS011;10421;49.142;9.232;2023-08-01T14:41:21;6.20;;;2.30;;
20525;SDS011;10421;49.142;9.232;2023-08-01T14:43:49;3.93;;;1.50;;
20525;SDS011;10421;49.142;9.232;2023-08-01T14:46:16;2.33;;;1.40;;